createdAt,value
2018-12-21T00:01:28.284Z,3.07
2018-12-21T00:03:56.904Z,3.60
2018-12-21T00:06:25.428Z,3.50
2018-12-21T00:08:53.887Z,3.23
2018-12-21T00:11:22.470Z,3.33
2018-12-21T00:13:51.266Z,3.43
2018-12-21T00:16:19.942Z,3.43
2018-12-21T00:18:48.430Z,3.03
2018-12-21T00:21:21.745Z,3.07
2018-12-21T00:23:47.528Z,3.60
2018-12-21T00:26:16.126Z,3.70
2018-12-21T00:28:45.019Z,2.80
2018-12-21T00:31:18.835Z,3.50
2018-12-21T00:33:52.734Z,3.40
2018-12-21T00:36:26.536Z,3.50
2018-12-21T00:39:00.322Z,3.40
2018-12-21T00:41:28.110Z,3.10
2018-12-21T00:44:04.788Z,3.47
2018-12-21T00:46:35.506Z,3.70
2018-12-21T00:49:04.204Z,3.47
2018-12-21T00:51:32.900Z,3.17
2018-12-21T00:54:01.689Z,3.07
2018-12-21T00:56:30.416Z,3.60
2018-12-21T00:58:58.978Z,2.97
2018-12-21T01:01:29.482Z,2.97
2018-12-21T01:03:58.172Z,2.47
2018-12-21T01:06:26.748Z,2.83
2018-12-21T01:08:55.347Z,3.03
2018-12-21T01:11:23.968Z,2.80
2018-12-21T01:13:52.503Z,3.17
2018-12-21T01:16:21.106Z,3.03
2018-12-21T01:18:49.897Z,2.77
2018-12-21T01:21:18.403Z,2.73
2018-12-21T01:23:46.867Z,3.03
2018-12-21T01:26:15.376Z,3.70
2018-12-21T01:28:44.131Z,2.80
2018-12-21T01:31:12.921Z,3.20
2018-12-21T01:33:41.554Z,2.80
2018-12-21T01:36:10.161Z,2.90
2018-12-21T01:38:38.636Z,2.60
2018-12-21T01:41:07.168Z,3.23
2018-12-21T01:43:35.995Z,2.53
2018-12-21T01:46:04.629Z,2.73
2018-12-21T01:48:33.117Z,2.33
2018-12-21T01:51:01.649Z,2.77
2018-12-21T01:53:30.225Z,2.40
2018-12-21T01:55:58.757Z,2.47
2018-12-21T01:58:27.324Z,2.13
2018-12-21T02:00:56.150Z,2.63
2018-12-21T02:03:24.834Z,2.53
2018-12-21T02:05:53.594Z,2.90
2018-12-21T02:08:22.118Z,2.40
2018-12-21T02:10:50.896Z,2.07
2018-12-21T02:13:19.371Z,2.20
2018-12-21T02:15:57.720Z,2.37
2018-12-21T02:18:26.422Z,2.20
2018-12-21T02:20:54.881Z,2.37
2018-12-21T02:23:23.414Z,2.30
2018-12-21T02:25:51.910Z,2.30
2018-12-21T02:28:20.380Z,2.37
2018-12-21T02:30:48.898Z,2.20
2018-12-21T02:33:17.466Z,2.03
2018-12-21T02:35:46.049Z,2.07
2018-12-21T02:38:14.644Z,2.10
2018-12-21T02:40:43.202Z,2.30
2018-12-21T02:43:13.996Z,2.00
2018-12-21T02:45:42.473Z,2.00
2018-12-21T02:48:10.979Z,2.70
2018-12-21T02:50:39.515Z,2.00
2018-12-21T02:53:08.102Z,2.00
2018-12-21T02:55:36.676Z,2.13
2018-12-21T02:58:05.212Z,2.27
2018-12-21T03:00:33.762Z,2.00
2018-12-21T03:03:02.235Z,1.83
2018-12-21T03:05:30.814Z,1.90
2018-12-21T03:11:19.387Z,1.97
2018-12-21T03:13:47.939Z,1.97
2018-12-21T03:16:16.498Z,1.93
2018-12-21T03:18:45.048Z,2.23
2018-12-21T03:21:13.540Z,2.07
2018-12-21T03:23:42.115Z,2.13
2018-12-21T03:26:10.728Z,2.60
2018-12-21T03:28:39.431Z,2.17
2018-12-21T03:31:07.937Z,2.10
2018-12-21T03:33:36.573Z,2.40
2018-12-21T03:36:05.300Z,2.30
2018-12-21T03:38:33.785Z,2.37
2018-12-21T03:41:02.447Z,2.10
2018-12-21T03:43:31.084Z,2.40
2018-12-21T03:45:59.581Z,2.50
2018-12-21T03:48:28.123Z,2.50
2018-12-21T03:50:56.607Z,2.07
2018-12-21T03:53:25.132Z,1.90
2018-12-21T03:55:53.926Z,1.93
2018-12-21T03:58:22.438Z,2.03
2018-12-21T04:00:50.964Z,2.17
2018-12-21T04:03:19.533Z,1.90
2018-12-21T04:05:48.131Z,1.70
2018-12-21T04:08:16.617Z,2.07
2018-12-21T04:10:45.187Z,1.90
2018-12-21T04:13:13.798Z,1.70
2018-12-21T04:15:42.303Z,1.73
2018-12-21T04:18:10.884Z,1.57
2018-12-21T04:20:39.356Z,1.40
2018-12-21T04:23:07.953Z,1.70
2018-12-21T04:25:36.516Z,1.60
2018-12-21T04:28:05.065Z,1.50
2018-12-21T04:30:33.675Z,1.30
2018-12-21T04:33:02.296Z,1.30
2018-12-21T04:35:30.946Z,1.23
2018-12-21T04:37:59.487Z,1.40
2018-12-21T04:40:28.016Z,1.20
2018-12-21T04:42:56.481Z,1.20
2018-12-21T04:45:25.034Z,1.10
2018-12-21T04:47:53.572Z,1.20
2018-12-21T04:50:22.275Z,1.20
2018-12-21T04:52:50.821Z,1.20
2018-12-21T04:55:19.346Z,1.00
2018-12-21T04:57:47.918Z,1.00
2018-12-21T05:00:16.404Z,1.10
2018-12-21T05:02:44.996Z,1.00
2018-12-21T05:05:13.494Z,1.00
2018-12-21T05:07:42.166Z,1.10
2018-12-21T05:10:11.256Z,1.17
2018-12-21T05:12:39.898Z,1.10
2018-12-21T05:15:08.525Z,1.00
2018-12-21T05:17:37.209Z,0.90
2018-12-21T05:20:06.332Z,1.23
2018-12-21T05:22:34.908Z,1.20
2018-12-21T05:25:03.620Z,1.00
2018-12-21T05:27:32.113Z,1.10
2018-12-21T05:30:00.608Z,1.00
2018-12-21T05:32:29.286Z,1.00
2018-12-21T05:34:57.877Z,1.10
2018-12-21T05:37:26.380Z,1.00
2018-12-21T05:39:54.988Z,1.07
2018-12-21T05:42:23.486Z,0.90
2018-12-21T05:44:51.976Z,1.07
2018-12-21T05:47:20.495Z,1.10
2018-12-21T05:49:49.074Z,1.00
2018-12-21T05:52:17.658Z,1.10
2018-12-21T05:54:46.320Z,1.10
2018-12-21T05:57:14.860Z,1.17
2018-12-21T05:59:43.440Z,1.00
2018-12-21T06:02:12.156Z,1.00
2018-12-21T06:04:40.651Z,1.00
2018-12-21T06:07:09.183Z,1.10
2018-12-21T06:09:37.796Z,1.13
2018-12-21T06:12:06.378Z,1.10
2018-12-21T06:14:34.842Z,1.20
2018-12-21T06:17:03.334Z,1.20
2018-12-21T06:19:32.009Z,1.10
2018-12-21T06:22:00.507Z,1.00
2018-12-21T06:24:29.111Z,1.40
2018-12-21T06:26:57.592Z,1.00
2018-12-21T06:29:26.178Z,1.10
2018-12-21T06:31:54.717Z,1.00
2018-12-21T06:34:23.324Z,1.10
2018-12-21T06:36:51.827Z,1.10
2018-12-21T06:39:20.519Z,1.00
2018-12-21T06:41:49.014Z,1.10
2018-12-21T06:44:17.516Z,1.10
2018-12-21T06:46:46.120Z,1.10
2018-12-21T06:49:14.627Z,1.10
2018-12-21T06:51:43.316Z,1.17
2018-12-21T06:54:11.840Z,1.30
2018-12-21T06:56:40.501Z,1.20
2018-12-21T06:59:09.199Z,1.20
2018-12-21T07:01:37.823Z,1.10
2018-12-21T07:04:06.321Z,1.20
2018-12-21T07:06:34.842Z,1.10
2018-12-21T07:09:04.769Z,1.20
2018-12-21T07:11:33.437Z,1.40
2018-12-21T07:14:02.175Z,1.43
2018-12-21T07:16:30.811Z,1.30
2018-12-21T07:18:59.361Z,1.20
2018-12-21T07:21:27.965Z,1.03
2018-12-21T07:23:56.459Z,1.30
2018-12-21T07:26:24.975Z,1.50
2018-12-21T07:28:53.477Z,1.30
2018-12-21T07:31:21.997Z,1.70
2018-12-21T07:33:50.796Z,1.60
2018-12-21T07:36:19.452Z,1.50
2018-12-21T07:38:48.059Z,1.23
2018-12-21T07:41:16.633Z,1.10
2018-12-21T07:43:45.224Z,1.30
2018-12-21T07:46:13.803Z,1.00
2018-12-21T07:48:42.715Z,1.10
2018-12-21T07:51:11.272Z,1.27
2018-12-21T07:53:39.848Z,1.10
2018-12-21T07:56:08.418Z,1.60
2018-12-21T07:58:36.914Z,1.10
2018-12-21T08:01:05.398Z,1.13
2018-12-21T08:03:34.024Z,0.87
2018-12-21T08:06:02.728Z,1.20
2018-12-21T08:08:31.402Z,1.20
2018-12-21T08:11:00.088Z,1.00
2018-12-21T08:13:28.612Z,1.70
2018-12-21T08:15:57.195Z,1.70
2018-12-21T08:18:25.819Z,1.30
2018-12-21T08:20:54.550Z,1.30
2018-12-21T08:23:23.101Z,1.30
2018-12-21T08:25:51.601Z,1.13
2018-12-21T08:28:20.127Z,1.30
2018-12-21T08:30:48.643Z,1.40
2018-12-21T08:33:17.797Z,1.10
2018-12-21T08:35:46.334Z,1.20
2018-12-21T08:38:14.920Z,1.00
2018-12-21T08:40:43.529Z,1.07
2018-12-21T08:43:12.183Z,1.00
2018-12-21T08:45:40.791Z,0.90
2018-12-21T08:48:09.457Z,1.07
2018-12-21T08:50:37.982Z,1.10
2018-12-21T08:53:06.505Z,0.80
2018-12-21T08:55:35.123Z,1.20
2018-12-21T08:58:03.630Z,1.10
2018-12-21T09:00:32.251Z,1.00
2018-12-21T09:03:00.764Z,1.03
2018-12-21T09:05:29.555Z,1.13
2018-12-21T09:07:58.285Z,1.10
2018-12-21T09:10:26.993Z,1.00
2018-12-21T09:12:55.671Z,1.10
2018-12-21T09:15:24.911Z,1.20
2018-12-21T09:17:53.593Z,1.30
2018-12-21T09:20:22.378Z,1.10
2018-12-21T09:22:50.969Z,1.20
2018-12-21T09:25:19.504Z,1.20
2018-12-21T09:27:47.982Z,1.23
2018-12-21T09:30:16.550Z,1.17
2018-12-21T09:32:45.126Z,1.30
2018-12-21T09:35:13.787Z,1.23
2018-12-21T09:37:42.380Z,1.03
2018-12-21T09:40:12.496Z,1.27
2018-12-21T09:42:40.996Z,1.10
2018-12-21T09:45:09.674Z,1.10
2018-12-21T09:47:38.180Z,1.20
2018-12-21T09:50:09.030Z,1.17
2018-12-21T09:52:37.638Z,1.53
2018-12-21T09:55:07.498Z,1.30
2018-12-21T09:57:36.281Z,1.40
2018-12-21T10:00:07.290Z,1.40
2018-12-21T10:02:36.097Z,1.30
2018-12-21T10:05:05.128Z,1.20
2018-12-21T10:07:33.658Z,1.40
2018-12-21T10:10:02.280Z,1.10
2018-12-21T10:12:30.874Z,1.20
2018-12-21T10:14:59.416Z,1.23
2018-12-21T10:17:28.016Z,1.10
2018-12-21T10:19:56.650Z,1.07
2018-12-21T10:22:26.169Z,1.10
2018-12-21T10:24:54.676Z,1.10
2018-12-21T10:27:23.285Z,1.10
2018-12-21T10:29:51.825Z,0.93
2018-12-21T10:32:20.321Z,1.10
2018-12-21T10:34:48.837Z,1.10
2018-12-21T10:37:17.510Z,1.13
2018-12-21T10:39:46.029Z,1.00
2018-12-21T10:42:14.519Z,1.00
2018-12-21T10:44:43.061Z,1.00
2018-12-21T10:47:11.659Z,1.00
2018-12-21T10:49:40.251Z,1.20
2018-12-21T10:52:08.725Z,1.13
2018-12-21T10:54:37.285Z,1.10
2018-12-21T10:57:05.757Z,1.10
2018-12-21T10:59:34.416Z,1.20
2018-12-21T11:02:03.066Z,1.10
2018-12-21T11:04:31.767Z,1.23
2018-12-21T11:07:00.293Z,1.27
2018-12-21T11:09:28.791Z,1.10
2018-12-21T11:11:57.601Z,1.30
2018-12-21T11:14:26.094Z,1.07
2018-12-21T11:16:54.656Z,1.10
2018-12-21T11:19:23.425Z,1.13
2018-12-21T11:21:51.977Z,1.20
2018-12-21T11:24:20.596Z,1.10
2018-12-21T11:26:49.108Z,1.00
2018-12-21T11:29:17.665Z,1.00
2018-12-21T11:31:46.223Z,1.23
2018-12-21T11:34:14.925Z,1.23
2018-12-21T11:36:43.639Z,1.63
2018-12-21T11:39:12.268Z,1.57
2018-12-21T11:41:40.882Z,1.40
2018-12-21T11:44:09.396Z,1.53
2018-12-21T11:46:37.969Z,1.60
2018-12-21T11:49:06.509Z,1.20
2018-12-21T11:51:35.211Z,1.40
2018-12-21T11:54:03.891Z,1.20
2018-12-21T11:56:32.436Z,1.20
2018-12-21T11:59:01.024Z,1.10
2018-12-21T12:01:29.713Z,1.33
2018-12-21T12:03:58.729Z,1.10
2018-12-21T12:06:27.314Z,1.33
2018-12-21T12:08:55.931Z,1.20
2018-12-21T12:11:24.509Z,1.53
2018-12-21T12:13:53.102Z,1.60
2018-12-21T12:16:21.689Z,1.50
2018-12-21T12:18:50.313Z,1.43
2018-12-21T12:21:18.991Z,1.50
2018-12-21T12:23:47.496Z,1.53
2018-12-21T12:26:16.045Z,2.00
2018-12-21T12:28:44.652Z,1.77
2018-12-21T12:31:13.161Z,1.70
2018-12-21T12:33:41.786Z,1.53
2018-12-21T12:36:10.450Z,2.00
2018-12-21T12:38:38.957Z,1.80
2018-12-21T12:41:07.473Z,1.77
2018-12-21T12:43:36.006Z,1.77
2018-12-21T12:46:06.639Z,2.10
2018-12-21T12:48:35.220Z,3.03
2018-12-21T12:51:03.899Z,2.13
2018-12-21T12:53:32.473Z,2.23
2018-12-21T12:56:00.981Z,2.23
2018-12-21T12:58:29.521Z,2.30
2018-12-21T13:00:58.334Z,2.30
2018-12-21T13:03:27.004Z,2.00
2018-12-21T13:05:55.514Z,2.60
2018-12-21T13:08:24.213Z,3.10
2018-12-21T13:10:52.958Z,2.87
2018-12-21T13:13:21.592Z,3.30
2018-12-21T13:15:50.201Z,3.50
2018-12-21T13:18:18.764Z,3.33
2018-12-21T13:20:47.422Z,3.27
2018-12-21T13:23:15.916Z,3.77
2018-12-21T13:25:44.454Z,4.07
2018-12-21T13:28:13.051Z,4.33
2018-12-21T13:30:41.658Z,5.00
2018-12-21T13:33:10.220Z,5.23
2018-12-21T13:35:38.772Z,4.43
2018-12-21T13:38:07.348Z,4.17
2018-12-21T13:40:35.851Z,5.63
2018-12-21T13:43:04.588Z,4.37
2018-12-21T13:45:33.081Z,5.60
2018-12-21T13:48:01.614Z,4.90
2018-12-21T13:50:30.193Z,4.80
2018-12-21T13:52:58.690Z,4.57
2018-12-21T13:55:27.253Z,5.07
2018-12-21T13:57:55.810Z,4.60
2018-12-21T14:00:24.398Z,5.20
2018-12-21T14:02:52.950Z,4.43
2018-12-21T14:05:21.499Z,4.70
2018-12-21T14:07:50.216Z,4.77
2018-12-21T14:10:18.908Z,4.97
2018-12-21T14:12:47.478Z,5.10
2018-12-21T14:15:15.996Z,4.93
2018-12-21T14:17:44.545Z,6.00
2018-12-21T14:20:13.208Z,5.80
2018-12-21T14:22:41.697Z,5.60
2018-12-21T14:25:10.209Z,6.20
2018-12-21T14:27:38.758Z,6.50
2018-12-21T14:30:08.989Z,5.93
2018-12-21T14:32:37.557Z,6.50
2018-12-21T14:35:07.611Z,6.37
2018-12-21T14:37:36.375Z,6.20
2018-12-21T14:40:05.922Z,6.10
2018-12-21T14:42:34.484Z,6.73
2018-12-21T14:45:03.093Z,6.30
2018-12-21T14:47:31.661Z,6.70
2018-12-21T14:50:00.289Z,7.37
2018-12-21T14:52:29.131Z,6.43
2018-12-21T14:54:57.745Z,8.23
2018-12-21T14:57:26.401Z,6.80
2018-12-21T14:59:55.035Z,7.77
2018-12-21T15:02:23.569Z,6.33
2018-12-21T15:04:52.191Z,8.27
2018-12-21T15:07:20.849Z,7.00
2018-12-21T15:09:49.452Z,6.93
2018-12-21T15:12:18.127Z,8.13
2018-12-21T15:14:46.724Z,8.00
2018-12-21T15:17:15.601Z,7.33
2018-12-21T15:19:44.188Z,8.33
2018-12-21T15:22:12.765Z,9.30
2018-12-21T15:24:41.459Z,6.77
2018-12-21T15:27:09.987Z,7.70
2018-12-21T15:29:38.565Z,7.40
2018-12-21T15:32:07.091Z,7.17
2018-12-21T15:34:35.601Z,7.90
2018-12-21T15:37:04.131Z,7.57
2018-12-21T15:39:32.752Z,6.53
2018-12-21T15:42:01.337Z,8.00
2018-12-21T15:44:29.940Z,8.00
2018-12-21T15:46:58.520Z,8.07
2018-12-21T15:49:27.100Z,7.77
2018-12-21T15:51:55.578Z,7.70
2018-12-21T15:54:24.171Z,7.83
2018-12-21T15:56:52.772Z,6.83
2018-12-21T15:59:21.339Z,7.87
2018-12-21T16:01:49.933Z,8.93
2018-12-21T16:04:18.715Z,7.47
2018-12-21T16:06:47.321Z,8.53
2018-12-21T16:09:15.851Z,7.20
2018-12-21T16:11:44.423Z,7.93
2018-12-21T16:14:13.154Z,7.30
2018-12-21T16:16:41.697Z,8.03
2018-12-21T16:19:10.179Z,8.07
2018-12-21T16:21:38.907Z,8.70
2018-12-21T16:24:07.743Z,8.10
2018-12-21T16:26:36.291Z,7.80
2018-12-21T16:29:05.077Z,8.23
2018-12-21T16:31:33.761Z,8.83
2018-12-21T16:34:02.429Z,7.90
2018-12-21T16:36:31.035Z,7.90
2018-12-21T16:38:59.617Z,8.90
2018-12-21T16:41:28.177Z,9.20
2018-12-21T16:43:56.686Z,8.43
2018-12-21T16:46:25.225Z,8.00
2018-12-21T16:48:53.756Z,8.33
2018-12-21T16:51:22.266Z,7.70
2018-12-21T16:53:50.780Z,7.80
2018-12-21T16:56:19.369Z,9.07
2018-12-21T16:58:47.988Z,9.13
2018-12-21T17:01:16.569Z,8.33
2018-12-21T17:03:45.174Z,8.83
2018-12-21T17:06:13.749Z,8.40
2018-12-21T17:08:42.338Z,8.80
2018-12-21T17:11:11.117Z,9.83
2018-12-21T17:13:39.644Z,9.10
2018-12-21T17:16:08.225Z,8.90
2018-12-21T17:18:37.261Z,7.20
2018-12-21T17:21:05.852Z,8.80
2018-12-21T17:23:34.555Z,8.20
2018-12-21T17:26:03.112Z,9.67
2018-12-21T17:28:31.618Z,8.37
2018-12-21T17:31:00.168Z,8.63
2018-12-21T17:33:28.791Z,7.67
2018-12-21T17:35:57.470Z,8.93
2018-12-21T17:38:26.052Z,10.13
2018-12-21T17:40:54.844Z,9.30
2018-12-21T17:43:23.442Z,8.70
2018-12-21T17:45:52.039Z,9.50
2018-12-21T17:48:20.582Z,8.57
2018-12-21T17:50:49.118Z,9.40
2018-12-21T17:53:17.854Z,9.27
2018-12-21T17:55:46.456Z,9.30
2018-12-21T17:58:14.962Z,11.17
2018-12-21T18:00:43.547Z,9.57
2018-12-21T18:04:21.637Z,9.67
2018-12-21T18:06:50.192Z,8.70
2018-12-21T18:09:19.216Z,9.30
2018-12-21T18:11:47.821Z,8.70
2018-12-21T18:14:16.463Z,9.97
2018-12-21T18:16:45.047Z,9.30
2018-12-21T18:19:13.647Z,10.37
2018-12-21T18:21:46.701Z,10.20
2018-12-21T18:24:15.471Z,8.63
2018-12-21T18:26:44.057Z,9.30
2018-12-21T18:29:12.673Z,8.90
2018-12-21T18:31:47.873Z,9.10
2018-12-21T18:34:20.142Z,8.70
2018-12-21T18:36:48.699Z,8.47
2018-12-21T18:39:17.479Z,9.37
2018-12-21T18:41:46.055Z,8.47
2018-12-21T18:44:14.641Z,9.10
2018-12-21T18:46:43.228Z,8.77
2018-12-21T18:49:11.835Z,10.33
2018-12-21T18:51:40.480Z,8.67
2018-12-21T18:54:09.148Z,8.37
2018-12-21T18:56:47.394Z,7.83
2018-12-21T18:59:16.208Z,8.57
2018-12-21T19:01:44.695Z,7.87
2018-12-21T19:04:13.459Z,8.30
2018-12-21T19:06:42.042Z,7.83
2018-12-21T19:09:10.713Z,8.50
2018-12-21T19:11:39.345Z,9.30
2018-12-21T19:14:07.909Z,8.40
2018-12-21T19:16:36.577Z,8.00
2018-12-21T19:19:05.238Z,8.63
2018-12-21T19:21:33.749Z,8.60
2018-12-21T19:24:02.445Z,8.13
2018-12-21T19:26:30.997Z,8.10
2018-12-21T19:28:59.591Z,8.37
2018-12-21T19:31:28.114Z,8.23
2018-12-21T19:33:56.652Z,8.90
2018-12-21T19:36:25.203Z,8.87
2018-12-21T19:38:53.812Z,8.80
2018-12-21T19:41:22.449Z,8.50
2018-12-21T19:43:51.004Z,8.90
2018-12-21T19:46:19.823Z,9.37
2018-12-21T19:48:48.343Z,8.90
2018-12-21T19:51:17.185Z,10.10
2018-12-21T19:53:46.055Z,8.20
2018-12-21T19:57:04.198Z,9.10
2018-12-21T19:59:27.124Z,7.57
2018-12-21T20:01:55.656Z,8.83
2018-12-21T20:04:24.306Z,7.57
2018-12-21T20:06:53.054Z,9.83
2018-12-21T20:09:21.782Z,8.80
2018-12-21T20:11:50.414Z,8.07
2018-12-21T20:14:18.943Z,10.60
2018-12-21T20:16:47.565Z,10.50
2018-12-21T20:19:16.180Z,9.63
2018-12-21T20:21:44.768Z,8.13
2018-12-21T20:24:13.254Z,8.20
2018-12-21T20:26:45.171Z,9.27
2018-12-21T20:29:13.727Z,8.03
2018-12-21T20:31:42.545Z,7.80
2018-12-21T20:34:11.138Z,8.37
2018-12-21T20:36:39.818Z,8.43
2018-12-21T20:39:12.695Z,7.77
2018-12-21T20:41:41.399Z,8.50
2018-12-21T20:44:09.979Z,9.53
2018-12-21T20:46:38.485Z,9.60
2018-12-21T20:49:06.988Z,8.47
2018-12-21T20:51:41.127Z,9.17
2018-12-21T20:54:09.939Z,9.27
2018-12-21T20:56:39.221Z,9.70
2018-12-21T20:59:11.077Z,10.23
2018-12-21T21:01:39.706Z,8.30
2018-12-21T21:04:08.680Z,9.83
2018-12-21T21:06:37.212Z,8.97
2018-12-21T21:09:08.501Z,7.80
2018-12-21T21:11:37.070Z,10.13
2018-12-21T21:14:06.100Z,7.93
2018-12-21T21:16:34.890Z,8.57
2018-12-21T21:19:03.548Z,8.93
2018-12-21T21:21:32.096Z,8.90
2018-12-21T21:24:00.620Z,8.07
2018-12-21T21:26:29.224Z,9.40
2018-12-21T21:28:57.844Z,9.37
2018-12-21T21:31:28.025Z,8.93
2018-12-21T21:33:56.711Z,9.10
2018-12-21T21:36:25.203Z,9.67
2018-12-21T21:38:53.708Z,8.10
2018-12-21T21:41:22.246Z,8.37
2018-12-21T21:43:50.714Z,8.77
2018-12-21T21:46:19.360Z,9.73
2018-12-21T21:48:47.909Z,9.30
2018-12-21T21:51:26.302Z,10.10
2018-12-21T21:53:57.237Z,8.00
2018-12-21T21:56:28.521Z,8.77
2018-12-21T21:58:57.035Z,8.40
2018-12-21T22:01:25.543Z,8.67
2018-12-21T22:03:54.076Z,9.67
2018-12-21T22:06:22.733Z,8.57
2018-12-21T22:08:51.243Z,8.47
2018-12-21T22:11:19.833Z,8.97
2018-12-21T22:13:48.604Z,9.60
2018-12-21T22:16:17.280Z,8.90
2018-12-21T22:18:45.986Z,8.03
2018-12-21T22:21:14.554Z,8.27
2018-12-21T22:23:43.056Z,8.60
2018-12-21T22:26:11.622Z,8.17
2018-12-21T22:28:40.216Z,8.03
2018-12-21T22:31:08.794Z,7.77
2018-12-21T22:33:37.583Z,7.80
2018-12-21T22:36:06.107Z,9.57
2018-12-21T22:38:34.623Z,8.07
2018-12-21T22:41:03.339Z,8.50
2018-12-21T22:43:31.871Z,9.00
2018-12-21T22:46:00.401Z,8.00
2018-12-21T22:48:28.970Z,8.10
2018-12-21T22:50:57.494Z,8.80
2018-12-21T22:53:26.053Z,9.17
2018-12-21T22:55:54.580Z,8.67
2018-12-21T22:58:23.066Z,8.47
2018-12-21T23:00:51.710Z,8.57
2018-12-21T23:03:20.292Z,8.97
2018-12-21T23:05:48.827Z,9.10
2018-12-21T23:08:17.324Z,7.33
2018-12-21T23:10:46.141Z,8.00
2018-12-21T23:13:14.824Z,9.43
2018-12-21T23:15:43.400Z,8.00
2018-12-21T23:18:11.970Z,8.33
2018-12-21T23:20:40.692Z,8.73
2018-12-21T23:23:09.158Z,8.00
2018-12-21T23:25:37.758Z,8.53
2018-12-21T23:28:06.354Z,8.73
2018-12-21T23:30:34.862Z,8.83
2018-12-21T23:33:03.371Z,8.33
2018-12-21T23:35:31.982Z,8.27
2018-12-21T23:38:00.554Z,8.13
2018-12-21T23:40:29.043Z,8.03
2018-12-21T23:42:57.601Z,7.13
2018-12-21T23:45:26.318Z,8.27
2018-12-21T23:47:54.906Z,8.53
2018-12-21T23:50:23.397Z,7.80
2018-12-21T23:52:52.142Z,8.40
2018-12-21T23:55:20.728Z,9.13
2018-12-21T23:57:49.244Z,8.30
